createdAt,value
2022-10-08T00:01:23.630Z,13.20
2022-10-08T00:03:54.155Z,13.20
2022-10-08T00:06:23.766Z,13.20
2022-10-08T00:08:53.454Z,13.20
2022-10-08T00:11:24.738Z,13.20
2022-10-08T00:13:53.321Z,13.20
2022-10-08T00:16:24.363Z,13.20
2022-10-08T00:18:54.175Z,13.20
2022-10-08T00:21:24.028Z,13.10
2022-10-08T00:23:53.130Z,13.10
2022-10-08T00:26:25.791Z,13.10
2022-10-08T00:28:55.695Z,13.10
2022-10-08T00:31:25.575Z,13.10
2022-10-08T00:33:54.874Z,13.10
2022-10-08T00:36:23.299Z,13.20
2022-10-08T00:38:55.735Z,13.10
2022-10-08T00:41:27.088Z,13.10
2022-10-08T00:43:56.601Z,13.10
2022-10-08T00:46:28.231Z,13.10
2022-10-08T00:49:01.699Z,13.10
2022-10-08T00:51:30.372Z,13.10
2022-10-08T00:53:58.518Z,13.10
2022-10-08T00:56:28.648Z,13.10
2022-10-08T00:58:56.560Z,13.10
2022-10-08T01:01:24.502Z,13.20
2022-10-08T01:03:52.371Z,13.10
2022-10-08T01:06:30.926Z,13.10
2022-10-08T01:09:03.951Z,13.10
2022-10-08T01:11:50.151Z,13.10
2022-10-08T01:14:30.081Z,13.10
2022-10-08T01:17:06.769Z,13.10
2022-10-08T01:20:05.481Z,13.10
2022-10-08T01:22:44.458Z,13.20
2022-10-08T01:25:33.875Z,13.10
2022-10-08T01:28:11.049Z,13.20
2022-10-08T01:30:45.341Z,13.20
2022-10-08T01:33:16.680Z,13.20
2022-10-08T01:35:50.596Z,13.20
2022-10-08T01:38:23.145Z,13.20
2022-10-08T01:40:54.709Z,13.20
2022-10-08T01:43:26.109Z,13.20
2022-10-08T01:45:59.774Z,13.20
2022-10-08T01:48:32.067Z,13.20
2022-10-08T01:51:03.513Z,13.20
2022-10-08T01:53:35.120Z,13.20
2022-10-08T01:56:05.376Z,13.20
2022-10-08T01:58:38.666Z,13.20
2022-10-08T02:01:11.482Z,13.20
2022-10-08T02:03:59.397Z,13.20
2022-10-08T02:06:28.513Z,13.10
2022-10-08T02:08:56.689Z,13.10
2022-10-08T02:11:24.538Z,13.10
2022-10-08T02:13:53.804Z,13.10
2022-10-08T02:16:28.573Z,13.10
2022-10-08T02:19:06.627Z,13.10
2022-10-08T02:21:35.530Z,13.10
2022-10-08T02:24:11.450Z,13.10
2022-10-08T02:26:45.356Z,13.10
2022-10-08T02:29:20.428Z,13.10
2022-10-08T02:31:51.548Z,13.10
2022-10-08T02:34:25.387Z,13.10
2022-10-08T02:36:58.100Z,13.10
2022-10-08T02:39:29.120Z,13.10
2022-10-08T02:42:01.684Z,13.10
2022-10-08T02:44:36.177Z,13.10
2022-10-08T02:47:08.725Z,13.10
2022-10-08T02:49:41.143Z,13.10
2022-10-08T02:52:10.377Z,13.10
2022-10-08T02:54:43.147Z,13.10
2022-10-08T02:57:15.998Z,13.10
2022-10-08T02:59:45.660Z,13.10
2022-10-08T03:02:18.728Z,13.10
2022-10-08T03:04:50.329Z,13.10
2022-10-08T03:07:18.788Z,13.10
2022-10-08T03:09:51.740Z,13.20
2022-10-08T03:12:20.404Z,13.10
2022-10-08T03:14:52.197Z,13.20
2022-10-08T03:17:24.160Z,13.20
2022-10-08T03:19:52.622Z,13.20
2022-10-08T03:22:20.753Z,13.20
2022-10-08T03:24:48.577Z,13.20
2022-10-08T03:27:16.439Z,13.20
2022-10-08T03:29:44.274Z,13.10
2022-10-08T03:32:13.406Z,13.10
2022-10-08T03:34:41.252Z,13.10
2022-10-08T03:37:09.121Z,13.10
2022-10-08T03:39:36.912Z,13.10
2022-10-08T03:42:05.647Z,13.10
2022-10-08T03:44:33.449Z,13.00
2022-10-08T03:47:01.242Z,13.00
2022-10-08T03:49:30.478Z,13.00
2022-10-08T03:51:58.404Z,12.90
2022-10-08T03:54:26.321Z,12.90
2022-10-08T03:56:54.156Z,12.90
2022-10-08T03:59:22.041Z,12.80
2022-10-08T04:01:49.894Z,12.80
2022-10-08T04:04:20.702Z,12.80
2022-10-08T04:06:53.773Z,12.80
2022-10-08T04:09:21.595Z,12.70
2022-10-08T04:11:49.402Z,12.70
2022-10-08T04:14:17.222Z,12.70
2022-10-08T04:16:45.005Z,12.60
2022-10-08T04:19:13.105Z,12.60
2022-10-08T04:21:41.200Z,12.60
2022-10-08T04:24:11.021Z,12.60
2022-10-08T04:26:38.848Z,12.60
2022-10-08T04:29:08.365Z,12.60
2022-10-08T04:31:36.232Z,12.60
2022-10-08T04:34:04.041Z,12.50
2022-10-08T04:36:31.829Z,12.50
2022-10-08T04:38:59.682Z,12.50
2022-10-08T04:41:29.279Z,12.60
2022-10-08T04:44:01.857Z,12.50
2022-10-08T04:46:29.833Z,12.50
2022-10-08T04:48:59.184Z,12.50
2022-10-08T04:51:28.260Z,12.50
2022-10-08T04:53:57.849Z,12.50
2022-10-08T04:56:29.311Z,12.50
2022-10-08T04:58:58.285Z,12.40
2022-10-08T05:01:27.390Z,12.50
2022-10-08T05:03:57.015Z,12.40
2022-10-08T05:06:28.070Z,12.40
2022-10-08T05:08:56.757Z,12.40
2022-10-08T05:11:26.087Z,12.40
2022-10-08T05:13:56.989Z,12.30
2022-10-08T05:16:26.445Z,12.40
2022-10-08T05:18:55.045Z,12.40
2022-10-08T05:21:25.239Z,12.30
2022-10-08T05:23:56.919Z,12.30
2022-10-08T05:26:46.654Z,12.30
2022-10-08T05:29:16.091Z,12.30
2022-10-08T05:31:43.909Z,12.30
2022-10-08T05:34:12.936Z,12.20
2022-10-08T05:36:40.775Z,12.30
2022-10-08T05:39:08.946Z,12.20
2022-10-08T05:41:37.854Z,12.10
2022-10-08T05:44:06.646Z,12.10
2022-10-08T05:46:37.600Z,12.10
2022-10-08T05:49:07.756Z,12.10
2022-10-08T05:51:36.120Z,12.10
2022-10-08T05:54:04.017Z,12.00
2022-10-08T05:56:31.876Z,12.00
2022-10-08T05:58:59.735Z,12.00
2022-10-08T06:01:29.143Z,11.90
2022-10-08T06:04:03.123Z,11.90
2022-10-08T06:06:36.469Z,11.90
2022-10-08T06:09:04.973Z,11.90
2022-10-08T06:11:34.594Z,11.90
2022-10-08T06:14:03.173Z,12.00
2022-10-08T06:16:31.505Z,11.90
2022-10-08T06:19:02.012Z,11.90
2022-10-08T06:21:31.261Z,11.90
2022-10-08T06:24:00.653Z,11.90
2022-10-08T06:26:35.761Z,11.90
2022-10-08T06:29:05.406Z,11.90
2022-10-08T06:31:33.800Z,11.90
2022-10-08T06:34:04.718Z,11.90
2022-10-08T06:36:34.649Z,11.90
2022-10-08T06:39:05.189Z,11.90
2022-10-08T06:41:34.767Z,12.10
2022-10-08T06:44:03.137Z,12.10
2022-10-08T06:46:32.680Z,12.10
2022-10-08T06:49:02.774Z,12.20
2022-10-08T06:51:31.019Z,12.20
2022-10-08T06:54:05.973Z,12.20
2022-10-08T06:56:36.106Z,12.30
2022-10-08T06:59:04.289Z,12.30
2022-10-08T07:01:34.048Z,12.40
2022-10-08T07:04:04.585Z,12.50
2022-10-08T07:06:32.633Z,12.60
2022-10-08T07:09:02.098Z,12.70
2022-10-08T07:11:31.865Z,12.80
2022-10-08T07:14:00.093Z,12.90
2022-10-08T07:16:28.788Z,13.00
2022-10-08T07:18:58.317Z,13.10
2022-10-08T07:21:28.852Z,13.20
2022-10-08T07:23:57.013Z,13.30
2022-10-08T07:26:26.733Z,13.40
2022-10-08T07:28:57.792Z,13.60
2022-10-08T07:31:29.629Z,13.60
2022-10-08T07:33:57.612Z,13.70
2022-10-08T07:36:27.505Z,13.80
2022-10-08T07:38:56.410Z,14.00
2022-10-08T07:41:25.009Z,14.10
2022-10-08T07:43:53.649Z,14.40
2022-10-08T07:46:21.990Z,14.70
2022-10-08T07:48:50.676Z,14.90
2022-10-08T07:51:21.214Z,15.20
2022-10-08T07:53:50.558Z,15.40
2022-10-08T07:56:22.768Z,15.70
2022-10-08T07:58:51.242Z,16.00
2022-10-08T08:01:21.102Z,16.40
2022-10-08T08:03:55.191Z,16.90
2022-10-08T08:06:24.032Z,17.40
2022-10-08T08:08:53.538Z,17.90
2022-10-08T08:11:23.000Z,18.20
2022-10-08T08:13:52.087Z,18.60
2022-10-08T08:16:22.094Z,19.00
2022-10-08T08:18:52.387Z,19.10
2022-10-08T08:21:22.056Z,19.40
2022-10-08T08:23:51.770Z,19.70
2022-10-08T08:26:22.504Z,19.90
2022-10-08T08:28:52.974Z,20.10
2022-10-08T08:31:22.568Z,20.30
2022-10-08T08:33:52.064Z,20.50
2022-10-08T08:36:21.200Z,20.70
2022-10-08T08:38:49.003Z,20.90
2022-10-08T08:41:48.973Z,21.00
2022-10-08T08:44:21.928Z,21.30
2022-10-08T08:46:54.717Z,21.60
2022-10-08T08:49:29.157Z,22.00
2022-10-08T08:51:58.229Z,22.00
2022-10-08T08:54:26.203Z,21.40
2022-10-08T08:56:56.251Z,21.10
2022-10-08T08:59:30.899Z,20.90
2022-10-08T09:02:02.190Z,20.70
2022-10-08T09:04:44.895Z,20.20
2022-10-08T09:07:17.642Z,19.80
2022-10-08T09:09:49.248Z,19.50
2022-10-08T09:12:21.398Z,19.40
2022-10-08T09:14:54.384Z,19.20
2022-10-08T09:17:29.033Z,19.40
2022-10-08T09:19:56.921Z,20.00
2022-10-08T09:22:27.414Z,20.80
2022-10-08T09:24:59.716Z,21.60
2022-10-08T09:27:45.624Z,22.30
2022-10-08T09:30:29.771Z,23.00
2022-10-08T09:33:00.914Z,22.70
2022-10-08T09:35:29.004Z,22.50
2022-10-08T09:37:59.911Z,22.30
2022-10-08T09:40:31.262Z,22.30
2022-10-08T09:43:19.090Z,22.50
2022-10-08T09:45:49.128Z,22.20
2022-10-08T09:48:23.814Z,22.00
2022-10-08T09:50:56.102Z,21.50
2022-10-08T09:53:27.088Z,21.20
2022-10-08T09:55:58.280Z,20.80
2022-10-08T09:58:31.926Z,20.60
2022-10-08T10:01:03.738Z,20.40
2022-10-08T10:03:32.576Z,20.20
2022-10-08T10:06:01.561Z,20.10
2022-10-08T10:08:49.738Z,20.00
2022-10-08T10:11:25.283Z,20.00
2022-10-08T10:13:56.144Z,20.10
2022-10-08T10:16:27.587Z,20.30
2022-10-08T10:19:00.098Z,20.30
2022-10-08T10:21:37.269Z,20.30
2022-10-08T10:24:14.488Z,20.20
2022-10-08T10:26:45.007Z,20.00
2022-10-08T10:29:19.710Z,19.80
2022-10-08T10:31:53.509Z,19.60
2022-10-08T10:34:25.383Z,19.40
2022-10-08T10:36:56.302Z,19.20
2022-10-08T10:39:34.895Z,19.00
2022-10-08T10:42:11.788Z,18.70
2022-10-08T10:44:52.152Z,18.60
2022-10-08T10:47:22.617Z,18.40
2022-10-08T10:49:51.821Z,18.30
2022-10-08T10:52:46.630Z,18.20
2022-10-08T10:55:22.507Z,18.10
2022-10-08T10:58:17.092Z,18.00
2022-10-08T11:00:56.567Z,17.90
2022-10-08T11:03:31.956Z,17.80
2022-10-08T11:06:12.856Z,17.70
2022-10-08T11:08:46.473Z,17.70
2022-10-08T11:11:24.413Z,17.70
2022-10-08T11:14:03.812Z,17.70
2022-10-08T11:16:47.251Z,17.60
2022-10-08T11:19:29.574Z,17.50
2022-10-08T11:22:05.855Z,17.50
2022-10-08T11:24:50.652Z,17.40
2022-10-08T11:27:28.342Z,17.40
2022-10-08T11:30:03.518Z,17.30
2022-10-08T11:32:34.141Z,17.30
2022-10-08T11:35:16.305Z,17.20
2022-10-08T11:37:51.364Z,17.10
2022-10-08T11:40:27.589Z,17.10
2022-10-08T11:43:05.614Z,17.10
2022-10-08T11:45:37.161Z,17.20
2022-10-08T11:48:34.542Z,17.30
2022-10-08T11:51:31.770Z,17.40
2022-10-08T11:54:24.408Z,17.50
2022-10-08T11:57:11.315Z,17.40
2022-10-08T11:59:41.863Z,17.40
2022-10-08T12:02:23.915Z,17.30
2022-10-08T12:04:55.942Z,17.10
2022-10-08T12:07:31.284Z,17.00
2022-10-08T12:10:19.469Z,16.90
2022-10-08T12:13:04.541Z,16.80
2022-10-08T12:15:52.857Z,16.80
2022-10-08T12:18:32.860Z,16.80
2022-10-08T12:21:38.004Z,16.90
2022-10-08T12:24:42.972Z,17.00
2022-10-08T12:27:37.699Z,17.20
2022-10-08T12:30:08.542Z,17.60
2022-10-08T12:32:55.887Z,18.20
2022-10-08T12:35:27.445Z,18.80
2022-10-08T12:38:14.803Z,19.20
2022-10-08T12:40:46.317Z,19.30
2022-10-08T12:43:22.862Z,19.30
2022-10-08T12:45:58.344Z,19.20
2022-10-08T12:48:35.671Z,19.10
2022-10-08T12:51:19.108Z,19.00
2022-10-08T12:53:48.520Z,18.80
2022-10-08T12:56:21.749Z,18.60
2022-10-08T12:58:51.266Z,18.40
2022-10-08T13:01:21.331Z,18.20
2022-10-08T13:04:07.498Z,18.00
2022-10-08T13:06:35.473Z,17.80
2022-10-08T13:09:14.960Z,17.70
2022-10-08T13:11:43.713Z,17.80
2022-10-08T13:14:26.175Z,18.00
2022-10-08T13:16:54.051Z,18.10
2022-10-08T13:19:30.115Z,18.30
2022-10-08T13:22:00.256Z,18.80
2022-10-08T13:24:37.419Z,19.10
2022-10-08T13:27:06.614Z,19.50
2022-10-08T13:29:37.404Z,19.90
2022-10-08T13:32:17.213Z,20.10
2022-10-08T13:34:47.344Z,20.50
2022-10-08T13:37:25.016Z,20.70
2022-10-08T13:39:54.984Z,20.90
2022-10-08T13:42:26.021Z,20.70
2022-10-08T13:44:55.806Z,20.50
2022-10-08T13:47:23.853Z,20.10
2022-10-08T13:49:51.643Z,19.70
2022-10-08T13:52:21.645Z,19.50
2022-10-08T13:54:52.329Z,19.30
2022-10-08T13:57:20.155Z,19.20
2022-10-08T13:59:48.067Z,19.10
2022-10-08T14:02:17.544Z,19.10
2022-10-08T14:04:45.425Z,19.20
2022-10-08T14:07:23.700Z,19.30
2022-10-08T14:09:52.537Z,19.10
2022-10-08T14:12:26.149Z,19.00
2022-10-08T14:14:54.121Z,19.00
2022-10-08T14:17:23.760Z,18.90
2022-10-08T14:19:52.160Z,18.90
2022-10-08T14:22:20.054Z,18.90
2022-10-08T14:24:48.049Z,18.90
2022-10-08T14:27:16.026Z,18.90
2022-10-08T14:29:44.209Z,18.80
2022-10-08T14:32:12.901Z,18.70
2022-10-08T14:34:42.061Z,18.60
2022-10-08T14:37:11.336Z,18.60
2022-10-08T14:39:39.170Z,18.50
2022-10-08T14:42:07.014Z,18.40
2022-10-08T14:44:34.810Z,18.30
2022-10-08T14:47:02.641Z,18.30
2022-10-08T14:49:30.479Z,18.20
2022-10-08T14:51:59.620Z,18.10
2022-10-08T14:54:27.980Z,18.00
2022-10-08T14:56:55.798Z,18.00
2022-10-08T14:59:23.592Z,17.90
2022-10-08T15:01:51.458Z,17.80
2022-10-08T15:04:19.551Z,17.80
2022-10-08T15:06:47.405Z,17.80
2022-10-08T15:09:16.957Z,17.70
2022-10-08T15:11:44.872Z,17.70
2022-10-08T15:14:14.263Z,17.60
2022-10-08T15:16:43.437Z,17.60
2022-10-08T15:19:11.387Z,17.60
2022-10-08T15:21:39.201Z,17.50
2022-10-08T15:24:07.394Z,17.50
2022-10-08T15:26:36.868Z,17.50
2022-10-08T15:29:05.076Z,17.40
2022-10-08T15:31:32.937Z,17.40
2022-10-08T15:34:01.693Z,17.40
2022-10-08T15:36:31.829Z,17.30
2022-10-08T15:39:00.933Z,17.30
2022-10-08T15:41:30.131Z,17.20
2022-10-08T15:44:08.519Z,17.20
2022-10-08T15:46:36.927Z,17.10
2022-10-08T15:49:05.076Z,17.00
2022-10-08T15:51:33.490Z,17.00
2022-10-08T15:54:01.535Z,17.00
2022-10-08T15:56:30.056Z,16.90
2022-10-08T15:59:01.187Z,16.80
2022-10-08T16:01:29.886Z,16.80
2022-10-08T16:03:58.534Z,16.70
2022-10-08T16:06:28.179Z,16.60
2022-10-08T16:08:57.582Z,16.60
2022-10-08T16:11:27.260Z,16.50
2022-10-08T16:13:57.123Z,16.50
2022-10-08T16:16:26.503Z,16.40
2022-10-08T16:18:58.259Z,16.30
2022-10-08T16:21:27.254Z,16.20
2022-10-08T16:23:55.202Z,16.10
2022-10-08T16:26:23.235Z,16.00
2022-10-08T16:28:52.750Z,16.00
2022-10-08T16:31:20.582Z,15.90
2022-10-08T16:33:55.096Z,15.90
2022-10-08T16:36:23.391Z,15.80
2022-10-08T16:38:51.611Z,15.70
2022-10-08T16:41:21.562Z,15.60
2022-10-08T16:43:51.011Z,15.50
2022-10-08T16:46:20.803Z,15.40
2022-10-08T16:48:53.441Z,15.30
2022-10-08T16:51:22.195Z,15.20
2022-10-08T16:53:50.264Z,15.00
2022-10-08T16:56:19.100Z,14.90
2022-10-08T16:58:51.796Z,14.80
2022-10-08T17:01:20.277Z,14.70
2022-10-08T17:03:48.621Z,14.60
2022-10-08T17:06:18.804Z,14.50
2022-10-08T17:08:47.109Z,14.40
2022-10-08T17:11:16.619Z,14.30
2022-10-08T17:13:46.412Z,14.20
2022-10-08T17:16:16.549Z,14.10
2022-10-08T17:18:45.152Z,13.90
2022-10-08T17:21:14.370Z,13.80
2022-10-08T17:23:43.548Z,13.70
2022-10-08T17:26:13.844Z,13.60
2022-10-08T17:28:43.400Z,13.50
2022-10-08T17:31:14.337Z,13.40
2022-10-08T17:33:43.026Z,13.30
2022-10-08T17:36:13.326Z,13.30
2022-10-08T17:38:44.316Z,13.20
2022-10-08T17:41:16.983Z,13.20
2022-10-08T17:43:45.573Z,13.20
2022-10-08T17:46:15.106Z,13.10
2022-10-08T17:48:43.909Z,13.10
2022-10-08T17:51:14.049Z,13.10
2022-10-08T17:53:43.556Z,13.00
2022-10-08T17:56:13.554Z,12.90
2022-10-08T17:58:41.418Z,12.70
2022-10-08T18:01:12.681Z,12.60
2022-10-08T18:03:42.346Z,12.30
2022-10-08T18:06:11.685Z,12.10
2022-10-08T18:08:39.865Z,11.90
2022-10-08T18:11:10.752Z,11.80
2022-10-08T18:13:39.032Z,11.60
2022-10-08T18:16:11.539Z,11.60
2022-10-08T18:18:39.480Z,11.60
2022-10-08T18:21:07.822Z,11.60
2022-10-08T18:23:36.905Z,11.50
2022-10-08T18:26:10.974Z,11.50
2022-10-08T18:28:39.121Z,11.40
2022-10-08T18:31:08.259Z,11.40
2022-10-08T18:33:37.730Z,11.20
2022-10-08T18:36:13.671Z,11.10
2022-10-08T18:38:42.359Z,11.00
2022-10-08T18:41:19.572Z,11.00
2022-10-08T18:43:48.955Z,10.90
2022-10-08T18:46:18.555Z,10.80
2022-10-08T18:48:46.875Z,10.80
2022-10-08T18:51:16.714Z,10.60
2022-10-08T18:53:45.536Z,10.50
2022-10-08T18:56:17.010Z,10.40
2022-10-08T18:58:46.799Z,10.40
2022-10-08T19:01:19.840Z,10.30
2022-10-08T19:03:49.119Z,10.40
2022-10-08T19:06:18.622Z,10.40
2022-10-08T19:08:46.780Z,10.40
2022-10-08T19:11:16.687Z,10.60
2022-10-08T19:13:46.017Z,10.60
2022-10-08T19:16:15.185Z,10.70
2022-10-08T19:18:43.941Z,10.70
2022-10-08T19:21:13.137Z,10.80
2022-10-08T19:23:41.636Z,10.90
2022-10-08T19:26:10.059Z,10.90
2022-10-08T19:28:39.258Z,10.90
2022-10-08T19:31:15.896Z,11.00
2022-10-08T19:33:44.537Z,11.10
2022-10-08T19:36:12.450Z,11.10
2022-10-08T19:38:40.284Z,11.10
2022-10-08T19:41:09.177Z,11.20
2022-10-08T19:43:37.058Z,11.20
2022-10-08T19:46:05.580Z,11.20
2022-10-08T19:48:35.077Z,11.20
2022-10-08T19:51:06.635Z,11.20
2022-10-08T19:53:35.060Z,11.20
2022-10-08T19:56:05.263Z,11.20
2022-10-08T19:58:33.429Z,11.20
2022-10-08T20:01:01.543Z,11.20
2022-10-08T20:03:29.622Z,11.20
2022-10-08T20:06:02.038Z,11.20
2022-10-08T20:08:29.923Z,11.20
2022-10-08T20:10:59.264Z,11.10
2022-10-08T20:13:27.217Z,11.00
2022-10-08T20:15:55.075Z,10.90
2022-10-08T20:18:22.922Z,10.80
2022-10-08T20:21:02.622Z,10.80
2022-10-08T20:23:30.501Z,10.70
2022-10-08T20:26:09.118Z,10.60
2022-10-08T20:28:37.290Z,10.60
2022-10-08T20:31:16.310Z,10.60
2022-10-08T20:33:44.956Z,10.60
2022-10-08T20:36:15.861Z,10.70
2022-10-08T20:38:44.537Z,10.70
2022-10-08T20:41:12.433Z,10.70
2022-10-08T20:43:40.743Z,10.80
2022-10-08T20:46:11.089Z,10.80
2022-10-08T20:48:40.652Z,10.90
2022-10-08T20:51:10.882Z,10.90
2022-10-08T20:53:40.587Z,11.00
2022-10-08T20:56:10.168Z,11.00
2022-10-08T20:58:38.667Z,11.10
2022-10-08T21:01:09.045Z,11.10
2022-10-08T21:03:38.011Z,11.10
2022-10-08T21:06:07.444Z,11.00
2022-10-08T21:08:39.295Z,11.00
2022-10-08T21:11:08.534Z,10.90
2022-10-08T21:13:37.085Z,10.90
2022-10-08T21:16:07.772Z,10.80
2022-10-08T21:18:36.291Z,10.80
2022-10-08T21:21:04.504Z,10.70
2022-10-08T21:23:32.584Z,10.60
2022-10-08T21:26:10.053Z,10.60
2022-10-08T21:28:38.498Z,10.50
2022-10-08T21:31:07.678Z,10.50
2022-10-08T21:33:36.886Z,10.40
2022-10-08T21:36:05.454Z,10.30
2022-10-08T21:38:33.822Z,10.30
2022-10-08T21:41:08.553Z,10.20
2022-10-08T21:43:37.782Z,10.10
2022-10-08T21:46:05.857Z,10.10
2022-10-08T21:48:34.001Z,10.10
2022-10-08T21:51:03.707Z,10.10
2022-10-08T21:53:33.623Z,10.00
2022-10-08T21:56:03.962Z,10.00
2022-10-08T21:58:35.964Z,9.90
2022-10-08T22:01:05.721Z,9.90
2022-10-08T22:03:33.981Z,9.90
2022-10-08T22:06:04.199Z,9.80
2022-10-08T22:08:32.904Z,9.60
2022-10-08T22:11:00.777Z,9.40
2022-10-08T22:13:28.641Z,9.20
2022-10-08T22:15:58.678Z,9.10
2022-10-08T22:18:30.116Z,9.10
2022-10-08T22:21:01.615Z,9.10
2022-10-08T22:23:29.553Z,9.10
2022-10-08T22:25:59.701Z,9.10
2022-10-08T22:28:28.718Z,9.20
2022-10-08T22:30:56.756Z,9.20
2022-10-08T22:33:24.599Z,9.20
2022-10-08T22:35:53.785Z,9.20
2022-10-08T22:38:21.613Z,9.20
2022-10-08T22:40:49.421Z,9.20
2022-10-08T22:43:17.245Z,9.10
2022-10-08T22:45:45.188Z,9.00
2022-10-08T22:48:13.055Z,8.90
2022-10-08T22:50:40.878Z,8.80
2022-10-08T22:53:10.088Z,8.60
2022-10-08T22:55:41.797Z,8.60
2022-10-08T22:58:09.964Z,8.50
2022-10-08T23:00:37.899Z,8.50
2022-10-08T23:03:05.850Z,8.50
2022-10-08T23:05:33.689Z,8.50
2022-10-08T23:08:01.540Z,8.50
2022-10-08T23:10:30.725Z,8.40
2022-10-08T23:12:58.569Z,8.40
2022-10-08T23:15:26.423Z,8.30
2022-10-08T23:17:54.251Z,8.30
2022-10-08T23:20:22.050Z,8.20
2022-10-08T23:22:50.263Z,8.20
2022-10-08T23:25:18.343Z,8.20
2022-10-08T23:27:47.497Z,8.10
2022-10-08T23:30:41.237Z,8.10
2022-10-08T23:33:03.242Z,8.10
2022-10-08T23:35:31.072Z,8.00
2022-10-08T23:37:58.904Z,8.00
2022-10-08T23:40:26.798Z,8.00
2022-10-08T23:42:56.036Z,7.90
2022-10-08T23:45:23.864Z,7.80
2022-10-08T23:47:51.692Z,7.60
2022-10-08T23:50:19.792Z,7.50
2022-10-08T23:52:47.862Z,7.50
2022-10-08T23:55:15.954Z,7.40
2022-10-08T23:57:43.764Z,7.40
